Kismet, KS

7:13 AM CDT on May 30, 2015 (GMT -0500)
Country | | Change Station
CLOSE
Current Station
Personal Weather Station
Location: Kismet, KS
Elevation: 2791 ft
Nearby Weather Stations

Elev 2791 ft 37.26 °N, 100.91 °W | Updated 8 seconds ago

Overcast
Overcast
52.7 °F
Feels Like 52.7 °F
N
18.0
Wind Variable Wind from ENE
Gusts 19.0 mph

Today
High -- | Low -- °F
--% Chance of Precip.
Yesterday
High -- | Low -- °F
Precip. -- in
6:25 AM 8:56 PM
Waxing Gibbous, 90% visible
Pressure 30.27 in
Visibility 10.0 miles
Clouds Overcast 1300 ft
Dew Point 49 °F
Humidity 87%
Rainfall 0.00 in
Snow Depth Not available.
UV 0 out of 12
Pollen 7.30 out of 12
Air Quality Not available.
Flu Activity No Activity
METAR KLBL 301155Z AUTO 01014KT 10SM OVC013 12/07 A3027 RMK AO1 10140 20120 52027

More Conditions Fewer Conditions

Pressure 30.27 in
Visibility 10.0 miles
Clouds Overcast 1300 ft
Dew Point 49 °F
Humidity 87%
Rainfall 0.00 in
Snow Depth Not available.
UV 0 out of 12
Pollen 7.30 out of 12
Air Quality Not available.
Flu Activity No Activity
METAR KLBL 301155Z AUTO 01014KT 10SM OVC013 12/07 A3027 RMK AO1 10140 20120 52027

More Conditions Fewer Conditions

10-Day Weather Forecast

Almanac

Astronomy

May. 30, 2015 Rise Set
Actual Time
Civil Twilight
Nautical Twilight
Astronomical Twilight
Moon
Length of Visible Light
Length of Day
Tomorrow will be .
, % of the Moon is Illuminated

Today's Extremes

State Highs State Lows

Community

WunderPhotos

Upload Photos

1,825,491 photos uploaded!

WunderBlogs® & News

Nearby

Air Quality

  Air Quality AQ Index Pollutant
Not available.

Snow Depth

Station Depth Elevation

Earthquake Activity

City Distance Mag. Time & Date
Minimum magnitude displayed is 2.5.

Coastal Water Temperatures

Place Temperature

Stations

Nearby Weather Stations

Station Location Temp. Windchill Dew Point Humidity Wind Precip. Elev Updated Type